AirNav   Everest Fuels
 
 1344 users online  

3FL4 Knobel Heliport
Cocoa, Florida, USA

GOING TO COCOA?


FAA INFORMATION EFFECTIVE 30 JANUARY 2020

Location

FAA Identifier: 3FL4
Lat/Long: 28-14-54.4300N 080-39-43.0900W
28-14.907167N 080-39.718167W
28.2484528,-80.6619694
(estimated)
Elevation: 38 ft. / 12 m (estimated)
Variation: 04W (1995)
From city: 5 miles SE of COCOA, FL
Time zone: UTC -5 (UTC -4 during Daylight Saving Time)
Zip code: 32940

Heliport Operations

Heliport use: Private use. Permission required prior to landing
Activation date: 03/1999
Control tower: no
ARTCC: JACKSONVILLE CENTER
FSS: SAINT PETERSBURG FLIGHT SERVICE STATION
Attendance: UNATNDD
Wind indicator: yes
Segmented circle: no

Heliport Communications

WX AWOS-3 at COI (6 nm N): 119.025 (321-986-8864)
WX ASOS at MLB (9 nm S): PHONE 321-951-7575
WX AWOS-3PT at TIX (18 nm NW): 120.625 (321-567-6090)
WX AWOS-3 at X59 (18 nm S): 122.725

Nearby radio navigation aids

VOR radial/distance  VOR name  Freq  Var
MLBr358/8.7MELBOURNE VOR/DME110.0007W
TRVr352/35.4TREASURE VORTAC117.3007W
ORLr116/39.7ORLANDO VORTAC112.2000E

Heliport Services

Runway Information

Helipad H1

Dimensions: 25 x 25 ft. / 8 x 8 m
Surface: concrete
Traffic pattern: leftleft

Heliport Ownership and Management from official FAA records

Ownership: Privately-owned
Owner: JJK CO LC & HEINZ KNOBEL
6455 SOUTH TROPICAL TERRACE
MERRITT ISLAND, FL 32952
Phone 407-723-8200

Heliport Operational Statistics

Aircraft based on the field: 1
Helicopters: 1
    

Additional Remarks

35 FT POWER LINES 375 FT NORTH & 490 FT EAST OF HELIPAD.
FOR CD CTC ORLANDO APCH AT 407-852-7553.

Instrument Procedures

There are no published instrument procedures at 3FL4.

Some nearby airports with instrument procedures:

KCOF - Patrick Air Force Base (3 nm E)
KCOI - Merritt Island Airport (6 nm N)
KMLB - Melbourne International Airport (9 nm S)
KXMR - Cape Canaveral Air Force Station Skid Strip (14 nm N)
KTIX - Space Coast Regional Airport (18 nm NW)
 
Loc | Ops | Rwys | IFR | FBO | Links
Com | Nav | Svcs | Stats | Notes

Reliance Aviation
AirBoss

 
Area around 3FL4 (Knobel Heliport)
 
Road maps at: MapQuest Bing Google
 
Aerial photo
No photo
 
Sectional chart

 
Airport distance calculator
Flying to Knobel Heliport? Find the distance to fly.

From to 3FL4

Sunrise and sunset
Times for 26-Feb-2020
 Local
(UTC-5)
 Zulu
(UTC)
Morning civil twilight06:2811:28
Sunrise06:5211:52
Sunset18:2023:20
Evening civil twilight18:4323:43

Current date and time
Zulu (UTC)  26-Feb-2020 14:32:13
Local (UTC-5)  26-Feb-2020 09:32:13
 
METAR
KCOF 
5nm SE 
261356Z AUTO 18009KT 10SM CLR 24/19 A2994 RMK AO2 SLP143 T02440194 $
KMLB 
9nm S 
261353Z 18008KT 10SM BKN110 23/19 A2995 RMK AO2 SLP140 T02280194
KXMR 
15nm NE 
261356Z AUTO 19012KT 10SM FEW200 23/18 A2992 RMK AO2 SLP135
KTIX 
17nm N 
261347Z 20010KT 7SM BKN100 24/19 A2993
TAF
KCOF 
5nm SE 
261100Z 2611/2717 20009KT 9999 SCT015 BKN040 QNH2990INS BECMG 2619/2620 24010G15KT 9000 -SHRA VCTS SCT022CB BKN030 QNH2985INS TEMPO 2620/2624 26015G25KT 1600 TSRA SCT008 BKN015CB OVC020 BECMG 2705/2706 30015G20KT 9999 VCSH BKN020 OVC035 QNH2992INS BECMG 2710/2711 34012G18KT 9999 NSW SCT020 QNH2996INS TX27/2618Z TN14/2709Z
KMLB 
9nm S 
261129Z 2612/2712 17008KT P6SM SCT030 OVC090 FM261800 20013G20KT P6SM VCTS BKN030CB FM270000 29011KT P6SM SHRA BKN030 OVC070 FM270800 31010KT P6SM SCT030 OVC120
KTIX 
17nm N 
261129Z 2612/2712 19008KT P6SM SCT030 OVC090 FM261900 20013G20KT P6SM VCTS BKN030CB FM270000 28011KT P6SM SHRA BKN030 OVC060 FM270800 31011KT P6SM SCT035 OVC120
NOTAMs
Click for the latest NOTAMs
NOTAMs are issued by the DoD/FAA and will open in a separate window not controlled by AirNav.

 

 
 

Would you like to see your business listed on this page?

 If your business provides an interesting product or service to pilots, flight crews, aircraft, or users of the Knobel Heliport, you should consider listing it here.  To start the listing process, click on the button below
 
Add a business
 

Other Pages about Knobel Heliport

Update a link
 
Copyright © AirNav, LLC. All rights reserved. Privacy Policy  Contact